sensor_id;sensor_type;location;lat;lon;timestamp;P1;durP1;ratioP1;P2;durP2;ratioP2
64467;SDS011;50853;46.836;16.820;2023-12-20T00:01:36;15.52;;;10.10;;
64467;SDS011;50853;46.836;16.820;2023-12-20T00:04:02;13.82;;;9.63;;
64467;SDS011;50853;46.836;16.820;2023-12-20T00:06:29;16.23;;;10.63;;
64467;SDS011;50853;46.836;16.820;2023-12-20T00:08:55;15.07;;;10.15;;
64467;SDS011;50853;46.836;16.820;2023-12-20T00:11:21;13.88;;;9.75;;
64467;SDS011;50853;46.836;16.820;2023-12-20T00:13:46;15.07;;;10.25;;
64467;SDS011;50853;46.836;16.820;2023-12-20T00:16:12;15.20;;;10.48;;
64467;SDS011;50853;46.836;16.820;2023-12-20T00:18:38;16.05;;;10.43;;
64467;SDS011;50853;46.836;16.820;2023-12-20T00:21:04;14.45;;;9.82;;
64467;SDS011;50853;46.836;16.820;2023-12-20T00:23:30;17.08;;;11.60;;
64467;SDS011;50853;46.836;16.820;2023-12-20T00:25:55;15.32;;;10.25;;
64467;SDS011;50853;46.836;16.820;2023-12-20T00:28:21;15.43;;;10.30;;
64467;SDS011;50853;46.836;16.820;2023-12-20T00:30:48;15.55;;;11.10;;
64467;SDS011;50853;46.836;16.820;2023-12-20T00:33:13;15.35;;;10.40;;
64467;SDS011;50853;46.836;16.820;2023-12-20T00:35:39;16.38;;;11.20;;
64467;SDS011;50853;46.836;16.820;2023-12-20T00:38:05;14.48;;;10.50;;
64467;SDS011;50853;46.836;16.820;2023-12-20T00:40:32;15.43;;;10.32;;
64467;SDS011;50853;46.836;16.820;2023-12-20T00:42:58;16.48;;;11.00;;
64467;SDS011;50853;46.836;16.820;2023-12-20T00:45:24;15.30;;;10.55;;
64467;SDS011;50853;46.836;16.820;2023-12-20T00:47:50;15.18;;;10.50;;
64467;SDS011;50853;46.836;16.820;2023-12-20T00:50:16;14.45;;;10.48;;
64467;SDS011;50853;46.836;16.820;2023-12-20T00:52:42;15.15;;;10.43;;
64467;SDS011;50853;46.836;16.820;2023-12-20T00:55:08;17.70;;;11.32;;
64467;SDS011;50853;46.836;16.820;2023-12-20T00:57:34;15.30;;;10.88;;
64467;SDS011;50853;46.836;16.820;2023-12-20T01:00:00;15.30;;;11.40;;
64467;SDS011;50853;46.836;16.820;2023-12-20T01:02:26;18.52;;;11.30;;
64467;SDS011;50853;46.836;16.820;2023-12-20T01:04:51;15.60;;;10.55;;
64467;SDS011;50853;46.836;16.820;2023-12-20T01:07:17;17.50;;;11.18;;
64467;SDS011;50853;46.836;16.820;2023-12-20T01:09:44;14.02;;;10.82;;
64467;SDS011;50853;46.836;16.820;2023-12-20T01:12:09;14.98;;;10.45;;
64467;SDS011;50853;46.836;16.820;2023-12-20T01:14:35;15.45;;;11.07;;
64467;SDS011;50853;46.836;16.820;2023-12-20T01:17:01;14.50;;;10.63;;
64467;SDS011;50853;46.836;16.820;2023-12-20T01:19:27;15.52;;;9.75;;
64467;SDS011;50853;46.836;16.820;2023-12-20T01:21:54;17.38;;;11.18;;
64467;SDS011;50853;46.836;16.820;2023-12-20T01:24:20;15.52;;;10.50;;
64467;SDS011;50853;46.836;16.820;2023-12-20T01:26:46;15.50;;;10.90;;
64467;SDS011;50853;46.836;16.820;2023-12-20T01:29:12;16.98;;;11.30;;
64467;SDS011;50853;46.836;16.820;2023-12-20T01:31:39;16.40;;;11.27;;
64467;SDS011;50853;46.836;16.820;2023-12-20T01:34:08;14.98;;;10.82;;
64467;SDS011;50853;46.836;16.820;2023-12-20T01:36:34;15.65;;;11.15;;
64467;SDS011;50853;46.836;16.820;2023-12-20T01:39:00;14.55;;;10.93;;
64467;SDS011;50853;46.836;16.820;2023-12-20T01:41:25;16.85;;;11.32;;
64467;SDS011;50853;46.836;16.820;2023-12-20T01:43:51;18.58;;;11.52;;
64467;SDS011;50853;46.836;16.820;2023-12-20T01:46:18;14.75;;;10.57;;
64467;SDS011;50853;46.836;16.820;2023-12-20T01:51:12;13.45;;;10.35;;
64467;SDS011;50853;46.836;16.820;2023-12-20T01:53:38;15.73;;;10.52;;
64467;SDS011;50853;46.836;16.820;2023-12-20T01:58:32;16.20;;;11.13;;
64467;SDS011;50853;46.836;16.820;2023-12-20T02:00:58;16.60;;;11.77;;
64467;SDS011;50853;46.836;16.820;2023-12-20T02:03:24;18.00;;;12.57;;
64467;SDS011;50853;46.836;16.820;2023-12-20T02:05:50;15.82;;;11.15;;
64467;SDS011;50853;46.836;16.820;2023-12-20T02:08:16;16.20;;;11.60;;
64467;SDS011;50853;46.836;16.820;2023-12-20T02:10:42;16.83;;;11.43;;
64467;SDS011;50853;46.836;16.820;2023-12-20T02:13:08;17.02;;;11.75;;
64467;SDS011;50853;46.836;16.820;2023-12-20T02:15:34;15.35;;;10.57;;
64467;SDS011;50853;46.836;16.820;2023-12-20T02:18:02;17.27;;;11.38;;
64467;SDS011;50853;46.836;16.820;2023-12-20T02:20:28;16.40;;;10.60;;
64467;SDS011;50853;46.836;16.820;2023-12-20T02:22:54;16.92;;;11.95;;
64467;SDS011;50853;46.836;16.820;2023-12-20T02:25:20;14.63;;;10.57;;
64467;SDS011;50853;46.836;16.820;2023-12-20T02:27:46;16.55;;;10.88;;
64467;SDS011;50853;46.836;16.820;2023-12-20T02:30:12;19.05;;;11.07;;
64467;SDS011;50853;46.836;16.820;2023-12-20T02:32:38;16.88;;;11.27;;
64467;SDS011;50853;46.836;16.820;2023-12-20T02:35:04;15.25;;;11.57;;
64467;SDS011;50853;46.836;16.820;2023-12-20T02:37:30;14.98;;;10.55;;
64467;SDS011;50853;46.836;16.820;2023-12-20T02:39:55;15.02;;;10.48;;
64467;SDS011;50853;46.836;16.820;2023-12-20T02:42:21;15.32;;;11.00;;
64467;SDS011;50853;46.836;16.820;2023-12-20T02:44:47;16.00;;;11.13;;
64467;SDS011;50853;46.836;16.820;2023-12-20T02:47:13;16.88;;;11.55;;
64467;SDS011;50853;46.836;16.820;2023-12-20T02:49:38;16.02;;;10.70;;
64467;SDS011;50853;46.836;16.820;2023-12-20T02:52:05;14.27;;;10.68;;
64467;SDS011;50853;46.836;16.820;2023-12-20T02:54:31;16.90;;;11.20;;
64467;SDS011;50853;46.836;16.820;2023-12-20T02:56:56;15.95;;;11.80;;
64467;SDS011;50853;46.836;16.820;2023-12-20T02:59:22;17.95;;;11.13;;
64467;SDS011;50853;46.836;16.820;2023-12-20T03:01:48;15.05;;;10.52;;
64467;SDS011;50853;46.836;16.820;2023-12-20T03:04:14;12.38;;;10.13;;
64467;SDS011;50853;46.836;16.820;2023-12-20T03:06:40;15.27;;;11.27;;
64467;SDS011;50853;46.836;16.820;2023-12-20T03:09:06;16.70;;;11.40;;
64467;SDS011;50853;46.836;16.820;2023-12-20T03:11:32;15.30;;;10.82;;
64467;SDS011;50853;46.836;16.820;2023-12-20T03:13:58;15.68;;;11.23;;
64467;SDS011;50853;46.836;16.820;2023-12-20T03:16:24;15.25;;;10.82;;
64467;SDS011;50853;46.836;16.820;2023-12-20T03:18:49;15.95;;;11.18;;
64467;SDS011;50853;46.836;16.820;2023-12-20T03:21:15;15.13;;;10.45;;
64467;SDS011;50853;46.836;16.820;2023-12-20T03:23:41;16.33;;;11.55;;
64467;SDS011;50853;46.836;16.820;2023-12-20T03:26:07;15.57;;;11.05;;
64467;SDS011;50853;46.836;16.820;2023-12-20T03:28:33;17.83;;;11.30;;
64467;SDS011;50853;46.836;16.820;2023-12-20T03:31:01;18.75;;;11.60;;
64467;SDS011;50853;46.836;16.820;2023-12-20T03:33:27;15.80;;;10.93;;
64467;SDS011;50853;46.836;16.820;2023-12-20T03:35:53;16.48;;;11.73;;
64467;SDS011;50853;46.836;16.820;2023-12-20T03:38:20;15.50;;;11.23;;
64467;SDS011;50853;46.836;16.820;2023-12-20T03:40:46;16.13;;;10.73;;
64467;SDS011;50853;46.836;16.820;2023-12-20T03:43:11;17.38;;;11.43;;
64467;SDS011;50853;46.836;16.820;2023-12-20T03:45:37;15.48;;;10.23;;
64467;SDS011;50853;46.836;16.820;2023-12-20T03:48:03;15.82;;;11.38;;
64467;SDS011;50853;46.836;16.820;2023-12-20T03:50:30;14.97;;;10.67;;
64467;SDS011;50853;46.836;16.820;2023-12-20T03:52:55;16.88;;;11.55;;
64467;SDS011;50853;46.836;16.820;2023-12-20T03:55:21;15.45;;;10.77;;
64467;SDS011;50853;46.836;16.820;2023-12-20T03:57:47;17.38;;;11.23;;
64467;SDS011;50853;46.836;16.820;2023-12-20T04:00:13;16.30;;;10.90;;
64467;SDS011;50853;46.836;16.820;2023-12-20T04:02:40;14.52;;;10.85;;
64467;SDS011;50853;46.836;16.820;2023-12-20T04:05:07;17.92;;;11.25;;
64467;SDS011;50853;46.836;16.820;2023-12-20T04:07:38;17.48;;;11.32;;
64467;SDS011;50853;46.836;16.820;2023-12-20T04:10:04;16.08;;;11.70;;
64467;SDS011;50853;46.836;16.820;2023-12-20T04:12:30;17.13;;;11.97;;
64467;SDS011;50853;46.836;16.820;2023-12-20T04:14:57;17.30;;;11.32;;
64467;SDS011;50853;46.836;16.820;2023-12-20T04:17:23;15.98;;;11.02;;
64467;SDS011;50853;46.836;16.820;2023-12-20T04:19:49;16.02;;;11.45;;
64467;SDS011;50853;46.836;16.820;2023-12-20T04:22:16;17.13;;;11.20;;
64467;SDS011;50853;46.836;16.820;2023-12-20T04:24:44;15.57;;;10.85;;
64467;SDS011;50853;46.836;16.820;2023-12-20T04:27:10;15.57;;;11.38;;
64467;SDS011;50853;46.836;16.820;2023-12-20T04:29:36;17.08;;;11.55;;
64467;SDS011;50853;46.836;16.820;2023-12-20T04:32:02;17.08;;;11.27;;
64467;SDS011;50853;46.836;16.820;2023-12-20T04:34:29;17.63;;;11.77;;
64467;SDS011;50853;46.836;16.820;2023-12-20T04:36:55;17.30;;;11.40;;
64467;SDS011;50853;46.836;16.820;2023-12-20T04:39:20;16.13;;;11.32;;
64467;SDS011;50853;46.836;16.820;2023-12-20T04:41:46;17.25;;;12.35;;
64467;SDS011;50853;46.836;16.820;2023-12-20T04:44:15;16.15;;;11.43;;
64467;SDS011;50853;46.836;16.820;2023-12-20T04:46:41;16.88;;;11.07;;
64467;SDS011;50853;46.836;16.820;2023-12-20T04:49:07;16.95;;;11.95;;
64467;SDS011;50853;46.836;16.820;2023-12-20T04:51:33;15.40;;;11.05;;
64467;SDS011;50853;46.836;16.820;2023-12-20T04:53:59;16.25;;;11.70;;
64467;SDS011;50853;46.836;16.820;2023-12-20T04:56:25;18.38;;;12.38;;
64467;SDS011;50853;46.836;16.820;2023-12-20T04:58:51;17.27;;;11.35;;
64467;SDS011;50853;46.836;16.820;2023-12-20T05:01:17;17.05;;;12.00;;
64467;SDS011;50853;46.836;16.820;2023-12-20T05:03:43;19.10;;;12.60;;
64467;SDS011;50853;46.836;16.820;2023-12-20T05:06:10;19.15;;;12.48;;
64467;SDS011;50853;46.836;16.820;2023-12-20T05:08:35;16.15;;;12.02;;
64467;SDS011;50853;46.836;16.820;2023-12-20T05:11:01;16.45;;;11.63;;
64467;SDS011;50853;46.836;16.820;2023-12-20T05:13:27;19.05;;;12.20;;
64467;SDS011;50853;46.836;16.820;2023-12-20T05:15:53;18.70;;;12.13;;
64467;SDS011;50853;46.836;16.820;2023-12-20T05:18:20;18.38;;;12.48;;
64467;SDS011;50853;46.836;16.820;2023-12-20T05:20:46;17.20;;;11.68;;
64467;SDS011;50853;46.836;16.820;2023-12-20T05:23:12;17.20;;;12.13;;
64467;SDS011;50853;46.836;16.820;2023-12-20T05:25:39;16.48;;;11.30;;
64467;SDS011;50853;46.836;16.820;2023-12-20T05:28:04;17.80;;;12.02;;
64467;SDS011;50853;46.836;16.820;2023-12-20T05:30:31;17.73;;;12.05;;
64467;SDS011;50853;46.836;16.820;2023-12-20T05:32:56;18.48;;;11.63;;
64467;SDS011;50853;46.836;16.820;2023-12-20T05:35:22;18.02;;;12.15;;
64467;SDS011;50853;46.836;16.820;2023-12-20T05:37:48;16.60;;;11.75;;
64467;SDS011;50853;46.836;16.820;2023-12-20T05:40:14;20.52;;;11.98;;
64467;SDS011;50853;46.836;16.820;2023-12-20T05:42:40;17.35;;;12.00;;
64467;SDS011;50853;46.836;16.820;2023-12-20T05:45:06;17.17;;;12.20;;
64467;SDS011;50853;46.836;16.820;2023-12-20T05:47:32;17.08;;;12.18;;
64467;SDS011;50853;46.836;16.820;2023-12-20T05:49:58;18.60;;;12.15;;
64467;SDS011;50853;46.836;16.820;2023-12-20T05:52:24;20.17;;;12.95;;
64467;SDS011;50853;46.836;16.820;2023-12-20T05:54:50;19.02;;;12.30;;
64467;SDS011;50853;46.836;16.820;2023-12-20T05:57:16;18.58;;;11.85;;
64467;SDS011;50853;46.836;16.820;2023-12-20T05:59:41;17.55;;;11.55;;
64467;SDS011;50853;46.836;16.820;2023-12-20T06:02:07;16.98;;;11.35;;
64467;SDS011;50853;46.836;16.820;2023-12-20T06:04:33;17.10;;;11.90;;
64467;SDS011;50853;46.836;16.820;2023-12-20T06:06:59;16.83;;;11.75;;
64467;SDS011;50853;46.836;16.820;2023-12-20T06:09:28;17.45;;;11.07;;
64467;SDS011;50853;46.836;16.820;2023-12-20T06:11:54;16.42;;;11.68;;
64467;SDS011;50853;46.836;16.820;2023-12-20T06:14:20;18.85;;;12.60;;
64467;SDS011;50853;46.836;16.820;2023-12-20T06:16:46;19.30;;;12.43;;
64467;SDS011;50853;46.836;16.820;2023-12-20T06:19:12;17.73;;;12.07;;
64467;SDS011;50853;46.836;16.820;2023-12-20T06:21:38;17.90;;;11.68;;
64467;SDS011;50853;46.836;16.820;2023-12-20T06:24:04;16.75;;;11.65;;
64467;SDS011;50853;46.836;16.820;2023-12-20T06:26:30;17.98;;;12.07;;
64467;SDS011;50853;46.836;16.820;2023-12-20T06:28:56;17.05;;;12.07;;
64467;SDS011;50853;46.836;16.820;2023-12-20T06:31:22;16.55;;;11.57;;
64467;SDS011;50853;46.836;16.820;2023-12-20T06:33:47;17.05;;;11.73;;
64467;SDS011;50853;46.836;16.820;2023-12-20T06:36:22;17.02;;;11.18;;
64467;SDS011;50853;46.836;16.820;2023-12-20T06:38:48;17.35;;;11.35;;
64467;SDS011;50853;46.836;16.820;2023-12-20T06:41:15;18.27;;;11.88;;
64467;SDS011;50853;46.836;16.820;2023-12-20T06:43:41;16.58;;;12.68;;
64467;SDS011;50853;46.836;16.820;2023-12-20T06:46:07;16.17;;;11.48;;
64467;SDS011;50853;46.836;16.820;2023-12-20T06:48:33;16.05;;;10.90;;
64467;SDS011;50853;46.836;16.820;2023-12-20T06:51:00;17.52;;;12.18;;
64467;SDS011;50853;46.836;16.820;2023-12-20T06:53:27;20.58;;;12.05;;
64467;SDS011;50853;46.836;16.820;2023-12-20T06:55:53;16.38;;;12.27;;
64467;SDS011;50853;46.836;16.820;2023-12-20T06:58:21;16.50;;;11.70;;
64467;SDS011;50853;46.836;16.820;2023-12-20T07:00:47;17.33;;;11.85;;
64467;SDS011;50853;46.836;16.820;2023-12-20T07:03:13;18.70;;;12.63;;
64467;SDS011;50853;46.836;16.820;2023-12-20T07:05:39;17.95;;;12.32;;
64467;SDS011;50853;46.836;16.820;2023-12-20T07:08:06;18.98;;;12.93;;
64467;SDS011;50853;46.836;16.820;2023-12-20T07:10:32;16.08;;;10.98;;
64467;SDS011;50853;46.836;16.820;2023-12-20T07:12:58;16.85;;;11.90;;
64467;SDS011;50853;46.836;16.820;2023-12-20T07:15:23;18.73;;;11.45;;
64467;SDS011;50853;46.836;16.820;2023-12-20T07:17:49;17.83;;;11.90;;
64467;SDS011;50853;46.836;16.820;2023-12-20T07:20:15;17.25;;;11.43;;
64467;SDS011;50853;46.836;16.820;2023-12-20T07:22:41;17.95;;;11.55;;
64467;SDS011;50853;46.836;16.820;2023-12-20T07:25:07;17.67;;;12.52;;
64467;SDS011;50853;46.836;16.820;2023-12-20T07:27:33;17.65;;;12.88;;
64467;SDS011;50853;46.836;16.820;2023-12-20T07:29:59;16.98;;;11.45;;
64467;SDS011;50853;46.836;16.820;2023-12-20T07:32:25;16.92;;;11.43;;
64467;SDS011;50853;46.836;16.820;2023-12-20T07:34:50;16.63;;;11.40;;
64467;SDS011;50853;46.836;16.820;2023-12-20T07:37:16;16.20;;;11.30;;
64467;SDS011;50853;46.836;16.820;2023-12-20T07:39:42;17.67;;;12.15;;
64467;SDS011;50853;46.836;16.820;2023-12-20T07:42:08;17.27;;;11.95;;
64467;SDS011;50853;46.836;16.820;2023-12-20T07:44:34;17.17;;;12.02;;
64467;SDS011;50853;46.836;16.820;2023-12-20T07:47:03;17.08;;;12.15;;
64467;SDS011;50853;46.836;16.820;2023-12-20T07:49:30;18.63;;;12.73;;
64467;SDS011;50853;46.836;16.820;2023-12-20T07:51:56;19.15;;;12.82;;
64467;SDS011;50853;46.836;16.820;2023-12-20T07:54:22;16.98;;;11.30;;
64467;SDS011;50853;46.836;16.820;2023-12-20T07:56:48;15.93;;;11.48;;
64467;SDS011;50853;46.836;16.820;2023-12-20T07:59:15;17.33;;;11.88;;
64467;SDS011;50853;46.836;16.820;2023-12-20T08:01:41;18.60;;;12.07;;
64467;SDS011;50853;46.836;16.820;2023-12-20T08:04:07;16.50;;;12.03;;
64467;SDS011;50853;46.836;16.820;2023-12-20T08:06:33;17.52;;;11.50;;
64467;SDS011;50853;46.836;16.820;2023-12-20T08:08:59;17.55;;;11.85;;
64467;SDS011;50853;46.836;16.820;2023-12-20T08:11:25;17.58;;;12.52;;
64467;SDS011;50853;46.836;16.820;2023-12-20T08:13:50;16.45;;;12.30;;
64467;SDS011;50853;46.836;16.820;2023-12-20T08:16:16;17.52;;;12.00;;
64467;SDS011;50853;46.836;16.820;2023-12-20T08:18:42;17.13;;;11.25;;
64467;SDS011;50853;46.836;16.820;2023-12-20T08:21:09;17.33;;;11.88;;
64467;SDS011;50853;46.836;16.820;2023-12-20T08:23:34;17.95;;;12.13;;
64467;SDS011;50853;46.836;16.820;2023-12-20T08:26:04;18.17;;;12.02;;
64467;SDS011;50853;46.836;16.820;2023-12-20T08:28:31;19.17;;;12.10;;
64467;SDS011;50853;46.836;16.820;2023-12-20T08:30:57;19.15;;;12.38;;
64467;SDS011;50853;46.836;16.820;2023-12-20T08:33:22;18.70;;;12.80;;
64467;SDS011;50853;46.836;16.820;2023-12-20T08:35:48;17.40;;;11.38;;
64467;SDS011;50853;46.836;16.820;2023-12-20T08:38:14;19.25;;;12.05;;
64467;SDS011;50853;46.836;16.820;2023-12-20T08:40:40;19.35;;;12.93;;
64467;SDS011;50853;46.836;16.820;2023-12-20T08:43:06;18.40;;;12.20;;
64467;SDS011;50853;46.836;16.820;2023-12-20T08:45:32;18.73;;;12.43;;
64467;SDS011;50853;46.836;16.820;2023-12-20T08:47:58;18.73;;;11.65;;
64467;SDS011;50853;46.836;16.820;2023-12-20T08:50:24;16.13;;;11.77;;
64467;SDS011;50853;46.836;16.820;2023-12-20T08:52:50;17.25;;;11.40;;
64467;SDS011;50853;46.836;16.820;2023-12-20T08:55:16;16.80;;;11.82;;
64467;SDS011;50853;46.836;16.820;2023-12-20T08:57:43;18.25;;;12.27;;
64467;SDS011;50853;46.836;16.820;2023-12-20T09:00:09;19.58;;;13.63;;
64467;SDS011;50853;46.836;16.820;2023-12-20T09:02:35;20.75;;;12.23;;
64467;SDS011;50853;46.836;16.820;2023-12-20T09:05:02;16.70;;;11.70;;
64467;SDS011;50853;46.836;16.820;2023-12-20T09:07:28;17.33;;;11.48;;
64467;SDS011;50853;46.836;16.820;2023-12-20T09:09:57;17.95;;;11.95;;
64467;SDS011;50853;46.836;16.820;2023-12-20T09:12:23;18.48;;;12.80;;
64467;SDS011;50853;46.836;16.820;2023-12-20T09:14:50;17.10;;;11.57;;
64467;SDS011;50853;46.836;16.820;2023-12-20T09:17:17;18.95;;;12.23;;
64467;SDS011;50853;46.836;16.820;2023-12-20T09:19:44;20.58;;;13.07;;
64467;SDS011;50853;46.836;16.820;2023-12-20T09:22:10;17.77;;;12.23;;
64467;SDS011;50853;46.836;16.820;2023-12-20T09:24:36;17.45;;;11.40;;
64467;SDS011;50853;46.836;16.820;2023-12-20T09:27:02;17.67;;;12.07;;
64467;SDS011;50853;46.836;16.820;2023-12-20T09:29:28;18.25;;;12.40;;
64467;SDS011;50853;46.836;16.820;2023-12-20T09:31:54;20.05;;;13.32;;
64467;SDS011;50853;46.836;16.820;2023-12-20T09:34:20;19.70;;;13.57;;
64467;SDS011;50853;46.836;16.820;2023-12-20T09:36:47;17.90;;;12.38;;
64467;SDS011;50853;46.836;16.820;2023-12-20T09:39:13;17.70;;;12.27;;
64467;SDS011;50853;46.836;16.820;2023-12-20T09:41:43;18.55;;;12.02;;
64467;SDS011;50853;46.836;16.820;2023-12-20T09:44:13;16.70;;;11.68;;
64467;SDS011;50853;46.836;16.820;2023-12-20T09:46:43;18.95;;;12.43;;
64467;SDS011;50853;46.836;16.820;2023-12-20T09:49:10;19.20;;;13.10;;
64467;SDS011;50853;46.836;16.820;2023-12-20T09:51:37;19.13;;;12.95;;
64467;SDS011;50853;46.836;16.820;2023-12-20T09:54:04;17.92;;;12.30;;
64467;SDS011;50853;46.836;16.820;2023-12-20T09:56:30;19.10;;;12.50;;
64467;SDS011;50853;46.836;16.820;2023-12-20T09:58:56;19.85;;;12.40;;
64467;SDS011;50853;46.836;16.820;2023-12-20T10:01:25;19.60;;;13.07;;
64467;SDS011;50853;46.836;16.820;2023-12-20T10:03:54;20.45;;;13.25;;
64467;SDS011;50853;46.836;16.820;2023-12-20T10:06:20;18.42;;;12.88;;
64467;SDS011;50853;46.836;16.820;2023-12-20T10:08:47;18.70;;;12.65;;
64467;SDS011;50853;46.836;16.820;2023-12-20T10:11:13;18.98;;;12.68;;
64467;SDS011;50853;46.836;16.820;2023-12-20T10:13:39;18.60;;;11.93;;
64467;SDS011;50853;46.836;16.820;2023-12-20T10:16:06;18.05;;;11.82;;
64467;SDS011;50853;46.836;16.820;2023-12-20T10:18:32;19.60;;;12.73;;
64467;SDS011;50853;46.836;16.820;2023-12-20T10:20:58;17.23;;;12.13;;
64467;SDS011;50853;46.836;16.820;2023-12-20T10:23:25;19.67;;;12.45;;
64467;SDS011;50853;46.836;16.820;2023-12-20T10:25:58;17.27;;;12.30;;
64467;SDS011;50853;46.836;16.820;2023-12-20T10:28:25;19.30;;;12.82;;
64467;SDS011;50853;46.836;16.820;2023-12-20T10:30:54;18.65;;;11.95;;
64467;SDS011;50853;46.836;16.820;2023-12-20T10:33:29;18.35;;;12.95;;
64467;SDS011;50853;46.836;16.820;2023-12-20T10:35:57;16.55;;;11.65;;
64467;SDS011;50853;46.836;16.820;2023-12-20T10:38:23;20.63;;;12.38;;
64467;SDS011;50853;46.836;16.820;2023-12-20T10:40:49;18.70;;;12.52;;
64467;SDS011;50853;46.836;16.820;2023-12-20T10:43:19;16.10;;;11.75;;
64467;SDS011;50853;46.836;16.820;2023-12-20T10:45:46;18.85;;;12.23;;
64467;SDS011;50853;46.836;16.820;2023-12-20T10:48:12;18.60;;;12.45;;
64467;SDS011;50853;46.836;16.820;2023-12-20T10:50:38;17.58;;;12.07;;
64467;SDS011;50853;46.836;16.820;2023-12-20T10:55:31;17.10;;;11.98;;
64467;SDS011;50853;46.836;16.820;2023-12-20T10:58:02;19.40;;;12.63;;
64467;SDS011;50853;46.836;16.820;2023-12-20T11:00:33;17.67;;;11.50;;
64467;SDS011;50853;46.836;16.820;2023-12-20T11:03:09;18.02;;;11.10;;
64467;SDS011;50853;46.836;16.820;2023-12-20T11:08:32;18.10;;;11.63;;
64467;SDS011;50853;46.836;16.820;2023-12-20T11:11:04;18.88;;;12.82;;
64467;SDS011;50853;46.836;16.820;2023-12-20T11:13:35;20.17;;;12.60;;
64467;SDS011;50853;46.836;16.820;2023-12-20T11:16:05;19.30;;;12.43;;
64467;SDS011;50853;46.836;16.820;2023-12-20T11:18:32;18.10;;;12.20;;
64467;SDS011;50853;46.836;16.820;2023-12-20T11:21:02;19.50;;;13.10;;
64467;SDS011;50853;46.836;16.820;2023-12-20T11:23:30;20.52;;;13.30;;
64467;SDS011;50853;46.836;16.820;2023-12-20T11:25:59;19.23;;;12.27;;
64467;SDS011;50853;46.836;16.820;2023-12-20T11:28:25;18.92;;;12.73;;
64467;SDS011;50853;46.836;16.820;2023-12-20T11:30:53;20.58;;;13.05;;
64467;SDS011;50853;46.836;16.820;2023-12-20T11:33:27;19.77;;;13.27;;
64467;SDS011;50853;46.836;16.820;2023-12-20T11:35:56;17.02;;;12.07;;
64467;SDS011;50853;46.836;16.820;2023-12-20T11:38:22;21.15;;;13.40;;
64467;SDS011;50853;46.836;16.820;2023-12-20T11:40:49;20.92;;;13.13;;
64467;SDS011;50853;46.836;16.820;2023-12-20T11:43:31;18.80;;;12.38;;
64467;SDS011;50853;46.836;16.820;2023-12-20T11:46:06;19.80;;;12.38;;
64467;SDS011;50853;46.836;16.820;2023-12-20T11:48:38;17.75;;;12.25;;
64467;SDS011;50853;46.836;16.820;2023-12-20T11:51:12;20.30;;;13.13;;
64467;SDS011;50853;46.836;16.820;2023-12-20T11:53:38;17.23;;;12.23;;
64467;SDS011;50853;46.836;16.820;2023-12-20T11:56:09;18.42;;;12.32;;
64467;SDS011;50853;46.836;16.820;2023-12-20T11:58:36;19.58;;;12.38;;
64467;SDS011;50853;46.836;16.820;2023-12-20T12:01:02;18.17;;;11.93;;
64467;SDS011;50853;46.836;16.820;2023-12-20T12:03:29;20.73;;;13.60;;
64467;SDS011;50853;46.836;16.820;2023-12-20T12:05:55;22.33;;;13.57;;
64467;SDS011;50853;46.836;16.820;2023-12-20T12:08:23;21.42;;;13.07;;
64467;SDS011;50853;46.836;16.820;2023-12-20T12:10:49;20.88;;;13.18;;
64467;SDS011;50853;46.836;16.820;2023-12-20T12:13:15;19.67;;;13.07;;
64467;SDS011;50853;46.836;16.820;2023-12-20T12:15:41;22.38;;;14.05;;
64467;SDS011;50853;46.836;16.820;2023-12-20T12:18:08;20.20;;;12.88;;
64467;SDS011;50853;46.836;16.820;2023-12-20T12:20:35;19.92;;;12.77;;
64467;SDS011;50853;46.836;16.820;2023-12-20T12:23:01;19.63;;;12.80;;
64467;SDS011;50853;46.836;16.820;2023-12-20T12:25:29;18.45;;;12.45;;
64467;SDS011;50853;46.836;16.820;2023-12-20T12:27:59;20.27;;;13.27;;
64467;SDS011;50853;46.836;16.820;2023-12-20T12:30:25;21.20;;;13.30;;
64467;SDS011;50853;46.836;16.820;2023-12-20T12:32:51;21.73;;;13.52;;
64467;SDS011;50853;46.836;16.820;2023-12-20T12:35:18;20.73;;;12.65;;
64467;SDS011;50853;46.836;16.820;2023-12-20T12:37:44;21.85;;;13.27;;
64467;SDS011;50853;46.836;16.820;2023-12-20T12:40:11;22.52;;;14.10;;
64467;SDS011;50853;46.836;16.820;2023-12-20T12:42:39;21.77;;;13.52;;
64467;SDS011;50853;46.836;16.820;2023-12-20T12:45:05;20.20;;;12.15;;
64467;SDS011;50853;46.836;16.820;2023-12-20T12:47:33;20.10;;;13.02;;
64467;SDS011;50853;46.836;16.820;2023-12-20T12:50:00;21.45;;;13.95;;
64467;SDS011;50853;46.836;16.820;2023-12-20T12:52:26;19.00;;;12.27;;
64467;SDS011;50853;46.836;16.820;2023-12-20T12:54:52;19.42;;;12.43;;
64467;SDS011;50853;46.836;16.820;2023-12-20T12:57:18;24.40;;;14.07;;
64467;SDS011;50853;46.836;16.820;2023-12-20T12:59:44;21.27;;;12.60;;
64467;SDS011;50853;46.836;16.820;2023-12-20T13:02:11;21.05;;;13.20;;
64467;SDS011;50853;46.836;16.820;2023-12-20T13:04:38;21.85;;;13.70;;
64467;SDS011;50853;46.836;16.820;2023-12-20T13:07:06;20.80;;;12.43;;
64467;SDS011;50853;46.836;16.820;2023-12-20T13:09:32;21.38;;;12.70;;
64467;SDS011;50853;46.836;16.820;2023-12-20T13:11:58;19.88;;;12.60;;
64467;SDS011;50853;46.836;16.820;2023-12-20T13:14:24;19.08;;;12.98;;
64467;SDS011;50853;46.836;16.820;2023-12-20T13:16:50;21.02;;;13.32;;
64467;SDS011;50853;46.836;16.820;2023-12-20T13:19:16;21.58;;;13.45;;
64467;SDS011;50853;46.836;16.820;2023-12-20T13:21:42;18.38;;;12.15;;
64467;SDS011;50853;46.836;16.820;2023-12-20T13:24:08;21.05;;;13.73;;
64467;SDS011;50853;46.836;16.820;2023-12-20T13:26:33;20.75;;;13.27;;
64467;SDS011;50853;46.836;16.820;2023-12-20T13:28:59;19.52;;;12.30;;
64467;SDS011;50853;46.836;16.820;2023-12-20T13:31:25;19.95;;;12.70;;
64467;SDS011;50853;46.836;16.820;2023-12-20T13:33:51;20.88;;;13.52;;
64467;SDS011;50853;46.836;16.820;2023-12-20T13:36:18;19.70;;;12.98;;
64467;SDS011;50853;46.836;16.820;2023-12-20T13:38:44;19.17;;;12.27;;
64467;SDS011;50853;46.836;16.820;2023-12-20T13:41:10;19.98;;;13.18;;
64467;SDS011;50853;46.836;16.820;2023-12-20T13:43:35;20.33;;;13.40;;
64467;SDS011;50853;46.836;16.820;2023-12-20T13:46:01;20.67;;;13.40;;
64467;SDS011;50853;46.836;16.820;2023-12-20T13:48:27;19.70;;;12.90;;
64467;SDS011;50853;46.836;16.820;2023-12-20T13:50:53;18.80;;;12.98;;
64467;SDS011;50853;46.836;16.820;2023-12-20T13:53:20;19.95;;;13.23;;
64467;SDS011;50853;46.836;16.820;2023-12-20T13:55:45;19.33;;;11.70;;
64467;SDS011;50853;46.836;16.820;2023-12-20T14:10:18;21.48;;;13.73;;
64467;SDS011;50853;46.836;16.820;2023-12-20T14:12:44;17.60;;;11.82;;
64467;SDS011;50853;46.836;16.820;2023-12-20T14:15:10;19.25;;;13.00;;
64467;SDS011;50853;46.836;16.820;2023-12-20T14:17:38;19.05;;;12.73;;
64467;SDS011;50853;46.836;16.820;2023-12-20T14:20:05;19.33;;;12.82;;
64467;SDS011;50853;46.836;16.820;2023-12-20T14:22:35;19.35;;;13.35;;
64467;SDS011;50853;46.836;16.820;2023-12-20T14:27:28;19.60;;;12.65;;
64467;SDS011;50853;46.836;16.820;2023-12-20T14:29:54;19.25;;;12.80;;